Dunsford, Canada
Current Conditions -  °F | °C
As of 3:02 PM on Saturday 25 Oct 2014 (Local Time) from CYPQ Reporting Station
Overcast Overcast  
Wind Chill: 57°   Ceiling: 3500
Heat Index: 57°   Visibility: 9mi
Dew Point: 50°   Wind: 15mph
Humidity: 77%   Direction: 270°W
Pressure: 29.56"   Gusts: 21mph
Location:  44.45°N, 78.63°W
Report Text: CYPQ 251902Z AUTO 27013G18KT 9SM SCT024 BKN035 OVC047 14/10 A2956 RMK SLP012 DENSITY ALT 1000FT
Loading
Personal Weather Stations






























Interactive Weather Map
Tropical Storm Tracking
New forecast layout! Learn more

10-Day Weather Forecast

Advertisements
Track Severe Weather on mobile